createdAt,value
2023-06-17T00:00:10.788Z,101488.16
2023-06-17T00:02:38.987Z,101487.16
2023-06-17T00:05:07.981Z,101496.99
2023-06-17T00:07:36.026Z,101493.56
2023-06-17T00:10:04.199Z,101493.50
2023-06-17T00:12:34.415Z,101489.02
2023-06-17T00:15:05.409Z,101488.63
2023-06-17T00:17:33.871Z,101486.08
2023-06-17T00:20:15.297Z,101487.64
2023-06-17T00:22:45.847Z,101488.43
2023-06-17T00:25:14.791Z,101492.35
2023-06-17T00:27:42.882Z,101489.02
2023-06-17T00:30:11.241Z,101484.87
2023-06-17T00:32:39.444Z,101490.62
2023-06-17T00:35:08.162Z,101489.64
2023-06-17T00:37:36.293Z,101484.67
2023-06-17T00:40:10.229Z,101474.73
2023-06-17T00:42:38.899Z,101479.66
2023-06-17T00:45:07.667Z,101482.94
2023-06-17T00:47:35.746Z,101477.61
2023-06-17T00:50:04.039Z,101477.93
2023-06-17T00:52:42.158Z,101481.20
2023-06-17T00:55:11.893Z,101483.16
2023-06-17T00:57:41.034Z,101476.92
2023-06-17T01:00:12.980Z,101475.55
2023-06-17T01:02:46.744Z,101474.27
2023-06-17T01:05:17.313Z,101474.56
2023-06-17T01:07:53.038Z,101464.63
2023-06-17T01:10:42.731Z,101465.73
2023-06-17T01:13:10.875Z,101463.61
2023-06-17T01:15:38.923Z,101469.76
2023-06-17T01:18:07.474Z,101470.61
2023-06-17T01:20:35.653Z,101463.91
2023-06-17T01:23:03.762Z,101472.54
2023-06-17T01:25:32.710Z,101459.72
2023-06-17T01:28:04.304Z,101465.84
2023-06-17T01:30:32.442Z,101466.23
2023-06-17T01:33:00.921Z,101463.65
2023-06-17T01:35:35.395Z,101467.27
2023-06-17T01:38:18.317Z,101466.82
2023-06-17T01:40:46.418Z,101467.66
2023-06-17T01:43:14.999Z,101467.18
2023-06-17T01:45:43.134Z,101474.17
2023-06-17T01:48:11.407Z,101472.96
2023-06-17T01:50:39.596Z,101476.13
2023-06-17T01:53:07.808Z,101473.23
2023-06-17T01:55:35.816Z,101476.59
2023-06-17T01:58:03.848Z,101464.98
2023-06-17T02:00:32.035Z,101463.32
2023-06-17T02:03:00.307Z,101470.67
2023-06-17T02:05:28.463Z,101475.88
2023-06-17T02:07:58.458Z,101469.07
2023-06-17T02:10:26.657Z,101472.93
2023-06-17T02:12:54.726Z,101468.09
2023-06-17T02:15:22.795Z,101474.96
2023-06-17T02:17:50.981Z,101472.84
2023-06-17T02:20:19.231Z,101467.37
2023-06-17T02:22:47.668Z,101467.73
2023-06-17T02:25:15.782Z,101463.55
2023-06-17T02:27:43.955Z,101467.99
2023-06-17T02:30:12.646Z,101464.76
2023-06-17T02:32:40.697Z,101466.82
2023-06-17T02:35:09.669Z,101470.05
2023-06-17T02:37:38.646Z,101470.87
2023-06-17T02:40:10.651Z,101469.70
2023-06-17T02:42:39.095Z,101469.59
2023-06-17T02:45:08.434Z,101460.84
2023-06-17T02:47:36.639Z,101455.47
2023-06-17T02:50:04.936Z,101462.53
2023-06-17T02:52:33.226Z,101458.41
2023-06-17T02:55:01.292Z,101462.04
2023-06-17T02:57:29.326Z,101461.88
2023-06-17T02:59:57.342Z,101461.88
2023-06-17T03:02:25.514Z,101464.27
2023-06-17T03:04:56.367Z,101470.02
2023-06-17T03:07:26.937Z,101467.99
2023-06-17T03:09:55.001Z,101470.77
2023-06-17T03:12:23.035Z,101471.49
2023-06-17T03:14:51.056Z,101476.76
2023-06-17T03:17:19.452Z,101469.14
2023-06-17T03:19:48.662Z,101474.44
2023-06-17T03:22:16.695Z,101467.83
2023-06-17T03:24:44.722Z,101466.62
2023-06-17T03:27:13.709Z,101468.29
2023-06-17T03:29:42.485Z,101461.98
2023-06-17T03:32:10.561Z,101466.52
2023-06-17T03:34:38.657Z,101467.27
2023-06-17T03:37:07.321Z,101472.27
2023-06-17T03:39:35.456Z,101485.39
2023-06-17T03:42:03.540Z,101473.75
2023-06-17T03:44:31.571Z,101462.24
2023-06-17T03:46:59.902Z,101478.59
2023-06-17T03:49:28.060Z,101472.24
2023-06-17T03:51:56.149Z,101474.30
2023-06-17T03:54:24.232Z,101472.15
2023-06-17T03:56:52.205Z,101464.46
2023-06-17T03:59:20.282Z,101473.09
2023-06-17T04:01:48.354Z,101483.85
2023-06-17T04:04:16.578Z,101476.89
2023-06-17T04:06:44.720Z,101475.58
2023-06-17T04:09:12.698Z,101475.13
2023-06-17T04:11:40.892Z,101481.23
2023-06-17T04:14:09.242Z,101484.87
2023-06-17T04:16:38.061Z,101496.38
2023-06-17T04:19:06.275Z,101495.06
2023-06-17T04:21:34.442Z,101488.95
2023-06-17T04:24:02.778Z,101490.16
2023-06-17T04:26:30.843Z,101484.41
2023-06-17T04:28:58.843Z,101486.66
2023-06-17T04:31:27.656Z,101482.64
2023-06-17T04:33:58.860Z,101489.24
2023-06-17T04:36:27.096Z,101484.44
2023-06-17T04:38:56.410Z,101488.63
2023-06-17T04:41:24.567Z,101484.63
2023-06-17T04:43:53.844Z,101478.98
2023-06-17T04:46:23.313Z,101483.98
2023-06-17T04:48:53.086Z,101485.39
2023-06-17T04:51:21.728Z,101485.52
2023-06-17T04:53:49.931Z,101487.22
2023-06-17T04:56:18.140Z,101484.90
2023-06-17T04:58:46.202Z,101491.11
2023-06-17T05:01:14.761Z,101490.39
2023-06-17T05:03:42.929Z,101485.91
2023-06-17T05:06:11.163Z,101497.55
2023-06-17T05:08:39.257Z,101499.32
2023-06-17T05:11:07.625Z,101497.45
2023-06-17T05:13:35.642Z,101497.65
2023-06-17T05:16:03.743Z,101493.66
2023-06-17T05:18:31.841Z,101496.60
2023-06-17T05:20:59.949Z,101490.59
2023-06-17T05:23:28.019Z,101493.95
2023-06-17T05:25:56.087Z,101495.79
2023-06-17T05:28:24.255Z,101487.25
2023-06-17T05:30:52.257Z,101489.48
2023-06-17T05:33:20.380Z,101493.27
2023-06-17T05:35:48.563Z,101493.43
2023-06-17T05:38:16.603Z,101494.80
2023-06-17T05:40:44.591Z,101497.06
2023-06-17T05:43:12.649Z,101509.02
2023-06-17T05:45:40.793Z,101501.41
2023-06-17T05:48:08.892Z,101499.45
2023-06-17T05:50:36.967Z,101495.13
2023-06-17T05:53:05.185Z,101507.23
2023-06-17T05:55:33.220Z,101507.39
2023-06-17T05:58:01.342Z,101500.56
2023-06-17T06:00:29.615Z,101505.30
2023-06-17T06:02:57.804Z,101506.18
2023-06-17T06:05:25.949Z,101509.62
2023-06-17T06:07:53.981Z,101505.56
2023-06-17T06:10:23.743Z,101505.76
2023-06-17T06:12:53.004Z,101501.34
2023-06-17T06:15:21.058Z,101508.47
2023-06-17T06:17:49.220Z,101508.99
2023-06-17T06:20:17.536Z,101498.83
2023-06-17T06:22:45.709Z,101512.92
2023-06-17T06:25:14.509Z,101515.99
2023-06-17T06:27:42.689Z,101506.64
2023-06-17T06:30:11.142Z,101512.95
2023-06-17T06:32:39.460Z,101518.02
2023-06-17T06:35:07.924Z,101513.57
2023-06-17T06:37:36.254Z,101509.59
2023-06-17T06:40:07.849Z,101515.11
2023-06-17T06:42:36.028Z,101512.43
2023-06-17T06:45:04.212Z,101508.93
2023-06-17T06:47:32.488Z,101505.56
2023-06-17T06:50:00.732Z,101513.15
2023-06-17T06:52:29.005Z,101510.43
2023-06-17T06:54:57.129Z,101510.59
2023-06-17T06:57:25.256Z,101511.09
2023-06-17T06:59:53.336Z,101515.37
2023-06-17T07:02:21.500Z,101519.13
2023-06-17T07:04:50.515Z,101518.90
2023-06-17T07:07:18.556Z,101516.58
2023-06-17T07:09:46.703Z,101529.49
2023-06-17T07:12:14.880Z,101525.08
2023-06-17T07:14:42.986Z,101519.39
2023-06-17T07:17:11.168Z,101520.38
2023-06-17T07:19:39.304Z,101518.02
2023-06-17T07:22:07.621Z,101521.95
2023-06-17T07:24:35.834Z,101521.26
2023-06-17T07:27:04.169Z,101514.32
2023-06-17T07:29:32.750Z,101519.75
2023-06-17T07:32:00.949Z,101519.10
2023-06-17T07:34:29.175Z,101514.69
2023-06-17T07:36:57.327Z,101514.81
2023-06-17T07:39:25.457Z,101518.22
2023-06-17T07:41:53.426Z,101519.13
2023-06-17T07:44:21.676Z,101519.16
2023-06-17T07:46:49.811Z,101515.89
2023-06-17T07:49:18.087Z,101515.08
2023-06-17T07:51:46.148Z,101515.89
2023-06-17T07:54:14.148Z,101512.63
2023-06-17T07:56:42.326Z,101516.02
2023-06-17T07:59:10.509Z,101511.94
2023-06-17T08:01:39.719Z,101517.79
2023-06-17T08:04:07.948Z,101511.97
2023-06-17T08:06:36.427Z,101516.97
2023-06-17T08:09:05.524Z,101509.95
2023-06-17T08:11:33.538Z,101510.83
2023-06-17T08:14:01.580Z,101506.64
2023-06-17T08:16:29.697Z,101505.43
2023-06-17T08:18:57.815Z,101512.52
2023-06-17T08:21:25.879Z,101507.10
2023-06-17T08:23:54.010Z,101500.82
2023-06-17T08:26:22.036Z,101494.18
2023-06-17T08:28:50.348Z,101495.82
2023-06-17T08:31:19.249Z,101487.45
2023-06-17T08:33:47.271Z,101487.84
2023-06-17T08:36:15.326Z,101488.20
2023-06-17T08:38:43.315Z,101477.77
2023-06-17T08:41:11.335Z,101481.46
2023-06-17T08:43:39.543Z,101476.04
2023-06-17T08:46:07.567Z,101482.25
2023-06-17T08:48:35.707Z,101477.61
2023-06-17T08:51:03.864Z,101478.39
2023-06-17T08:53:32.525Z,101485.88
2023-06-17T08:56:00.629Z,101475.52
2023-06-17T08:58:29.298Z,101481.34
2023-06-17T09:01:00.141Z,101477.51
2023-06-17T09:03:28.390Z,101473.23
2023-06-17T09:05:56.766Z,101474.08
2023-06-17T09:08:25.209Z,101469.07
2023-06-17T09:10:53.423Z,101476.43
2023-06-17T09:13:21.725Z,101478.00
2023-06-17T09:15:50.078Z,101470.97
2023-06-17T09:18:19.219Z,101479.34
2023-06-17T10:55:08.539Z,101403.91
2023-06-17T10:57:39.726Z,101401.20
2023-06-17T11:00:10.863Z,101403.13
2023-06-17T11:02:40.026Z,101402.30
2023-06-17T11:05:09.620Z,101389.46
2023-06-17T11:07:38.199Z,101385.80
2023-06-17T11:10:07.512Z,101387.17
2023-06-17T11:12:39.633Z,101383.02
2023-06-17T11:15:11.369Z,101388.25
2023-06-17T11:17:39.805Z,101380.56
2023-06-17T11:20:09.386Z,101377.98
2023-06-17T11:22:41.484Z,101374.48
2023-06-17T11:25:11.281Z,101371.96
2023-06-17T11:27:41.156Z,101373.66
2023-06-17T11:30:10.226Z,101374.55
2023-06-17T11:32:38.759Z,101372.26
2023-06-17T11:35:07.216Z,101368.04
2023-06-17T11:37:35.232Z,101378.08
2023-06-17T11:40:03.455Z,101368.43
2023-06-17T11:42:31.541Z,101365.33
2023-06-17T11:44:59.752Z,101368.95
2023-06-17T11:47:35.160Z,101371.34
2023-06-17T11:50:03.891Z,101370.85
2023-06-17T11:52:32.023Z,101370.85
2023-06-17T11:57:28.822Z,101366.57
2023-06-17T12:00:07.691Z,101359.37
2023-06-17T12:02:37.335Z,101362.41
2023-06-17T12:05:05.697Z,101356.17
2023-06-17T12:07:43.256Z,101353.20
2023-06-17T12:10:13.745Z,101356.11
2023-06-17T12:12:42.700Z,101349.93
2023-06-17T12:17:43.436Z,101352.58
2023-06-17T12:20:16.122Z,101351.63
2023-06-17T12:22:45.350Z,101354.38
2023-06-17T12:25:16.582Z,101353.62
2023-06-17T12:27:47.497Z,101358.69
2023-06-17T12:30:16.219Z,101348.29
2023-06-17T12:32:45.340Z,101347.67
2023-06-17T12:35:14.229Z,101350.55
2023-06-17T12:37:43.294Z,101337.90
2023-06-17T12:40:11.736Z,101334.76
2023-06-17T12:42:39.895Z,101332.17
2023-06-17T12:45:08.680Z,101335.64
2023-06-17T12:47:36.927Z,101324.85
2023-06-17T12:50:06.484Z,101329.95
2023-06-17T12:52:34.926Z,101326.09
2023-06-17T12:57:28.961Z,101318.51
2023-06-17T12:59:57.321Z,101320.20
2023-06-17T13:02:25.324Z,101319.88
2023-06-17T13:04:53.555Z,101310.20
2023-06-17T13:07:22.477Z,101313.63
2023-06-17T13:09:50.657Z,101306.51
2023-06-17T13:12:19.242Z,101306.67
2023-06-17T13:14:49.567Z,101302.88
2023-06-17T13:17:18.541Z,101303.37
2023-06-17T13:19:47.016Z,101297.65
2023-06-17T13:22:15.197Z,101303.73
2023-06-17T13:24:43.494Z,101292.02
2023-06-17T13:27:11.832Z,101294.21
2023-06-17T13:29:39.840Z,101293.04
2023-06-17T13:32:08.547Z,101293.52
2023-06-17T13:34:36.702Z,101287.77
2023-06-17T13:37:05.149Z,101295.75
2023-06-17T13:39:36.116Z,101287.70
2023-06-17T13:42:07.466Z,101287.51
2023-06-17T13:44:36.103Z,101277.47
2023-06-17T13:47:04.207Z,101275.19
2023-06-17T13:49:34.042Z,101277.44
2023-06-17T13:52:03.776Z,101276.13
2023-06-17T13:54:32.074Z,101274.63
2023-06-17T13:57:00.361Z,101276.10
2023-06-17T13:59:28.641Z,101272.77
2023-06-17T14:01:56.835Z,101276.75
2023-06-17T14:04:25.233Z,101273.22
2023-06-17T14:06:54.234Z,101275.84
2023-06-17T14:09:23.429Z,101274.86
2023-06-17T14:11:52.887Z,101269.20
2023-06-17T14:14:20.931Z,101262.43
2023-06-17T14:19:20.318Z,101251.09
2023-06-17T14:22:07.431Z,101257.46
2023-06-17T14:24:38.986Z,101249.09
2023-06-17T14:27:34.364Z,101241.80
2023-06-17T14:30:02.398Z,101247.69
2023-06-17T14:32:30.700Z,101239.64
2023-06-17T14:34:59.278Z,101241.77
2023-06-17T14:37:28.588Z,101234.09
2023-06-17T14:39:56.718Z,101230.91
2023-06-17T14:42:24.855Z,101232.68
2023-06-17T14:44:52.869Z,101238.86
2023-06-17T14:47:22.073Z,101228.27
2023-06-17T14:49:50.490Z,101229.38
2023-06-17T14:52:18.635Z,101234.18
2023-06-17T14:54:46.686Z,101243.30
2023-06-17T14:57:15.011Z,101232.41
2023-06-17T14:59:43.547Z,101228.52
2023-06-17T15:02:14.595Z,101234.45
2023-06-17T15:04:42.697Z,101226.80
2023-06-17T15:07:10.852Z,101237.42
2023-06-17T15:09:42.013Z,101222.94
2023-06-17T15:12:14.119Z,101225.23
2023-06-17T15:14:43.123Z,101230.81
2023-06-17T15:17:11.197Z,101223.39
2023-06-17T15:19:39.513Z,101226.86
2023-06-17T15:22:08.034Z,101212.77
2023-06-17T15:24:37.007Z,101223.75
2023-06-17T15:27:05.435Z,101220.09
2023-06-17T15:29:33.529Z,101221.92
2023-06-17T15:32:02.213Z,101218.52
2023-06-17T15:34:30.256Z,101208.38
2023-06-17T15:36:58.280Z,101212.41
2023-06-17T15:39:27.962Z,101216.69
2023-06-17T15:41:56.200Z,101207.99
2023-06-17T15:44:24.473Z,101208.52
2023-06-17T15:46:52.928Z,101203.55
2023-06-17T15:49:20.988Z,101207.41
2023-06-17T15:51:49.244Z,101204.46
2023-06-17T15:54:17.377Z,101202.83
2023-06-17T15:56:48.458Z,101199.16
2023-06-17T15:59:17.166Z,101194.13
2023-06-17T16:01:45.414Z,101197.86
2023-06-17T16:04:42.961Z,101190.37
2023-06-17T16:07:12.250Z,101187.88
2023-06-17T16:09:52.293Z,101190.47
2023-06-17T16:12:20.567Z,101179.25
2023-06-17T16:14:49.019Z,101188.15
2023-06-17T16:17:17.261Z,101177.32
2023-06-17T16:19:45.433Z,101184.09
2023-06-17T16:22:14.469Z,101186.19
2023-06-17T16:24:43.099Z,101189.13
2023-06-17T16:27:13.058Z,101196.26
2023-06-17T16:29:41.256Z,101197.59
2023-06-17T16:32:09.632Z,101190.89
2023-06-17T16:34:37.712Z,101189.23
2023-06-17T16:37:06.012Z,101188.80
2023-06-17T16:39:34.586Z,101190.44
2023-06-17T16:42:06.626Z,101190.89
2023-06-17T16:44:35.532Z,101193.05
2023-06-17T16:47:03.679Z,101179.77
2023-06-17T16:49:31.975Z,101190.70
2023-06-17T16:52:00.304Z,101187.36
2023-06-17T16:54:28.380Z,101187.82
2023-06-17T16:56:56.396Z,101181.61
2023-06-17T16:59:25.057Z,101187.88
2023-06-17T17:01:53.949Z,101183.70
2023-06-17T17:04:22.285Z,101181.61
2023-06-17T17:06:50.525Z,101183.63
2023-06-17T17:09:25.215Z,101183.63
2023-06-17T17:11:53.400Z,101181.94
2023-06-17T17:14:21.472Z,101194.13
2023-06-17T17:16:49.821Z,101183.77
2023-06-17T17:19:18.657Z,101183.77
2023-06-17T17:21:47.877Z,101181.28
2023-06-17T17:24:15.998Z,101186.31
2023-06-17T17:26:44.359Z,101184.29
2023-06-17T17:29:12.864Z,101188.05
2023-06-17T17:31:41.358Z,101187.66
2023-06-17T17:34:09.436Z,101192.69
2023-06-17T17:36:38.636Z,101193.97
2023-06-17T17:39:18.395Z,101195.24
2023-06-17T17:41:46.533Z,101190.27
2023-06-17T17:44:14.703Z,101195.02
2023-06-17T17:46:42.928Z,101198.31
2023-06-17T17:49:11.112Z,101189.98
2023-06-17T17:51:39.188Z,101195.54
2023-06-17T17:54:07.533Z,101203.55
2023-06-17T17:56:35.943Z,101197.76
2023-06-17T17:59:04.158Z,101196.22
2023-06-17T18:01:32.200Z,101207.14
2023-06-17T18:04:01.049Z,101211.82
2023-06-17T18:06:31.755Z,101211.07
2023-06-17T18:09:00.131Z,101207.83
2023-06-17T18:11:28.784Z,101204.98
2023-06-17T18:13:57.185Z,101205.87
2023-06-17T18:16:25.584Z,101218.06
2023-06-17T18:18:53.856Z,101215.68
2023-06-17T18:21:21.942Z,101209.04
2023-06-17T18:23:50.170Z,101214.14
2023-06-17T18:26:18.300Z,101221.20
2023-06-17T18:28:46.387Z,101211.13
2023-06-17T18:31:14.892Z,101214.47
2023-06-17T18:33:43.420Z,101214.89
2023-06-17T18:36:11.647Z,101210.31
2023-06-17T18:38:39.882Z,101213.23
2023-06-17T18:41:08.164Z,101212.84
2023-06-17T18:43:36.309Z,101217.93
2023-06-17T18:48:54.924Z,101215.91
2023-06-17T18:51:22.957Z,101215.64
2023-06-17T18:53:51.013Z,101217.80
2023-06-17T18:56:19.095Z,101220.38
2023-06-17T18:58:47.096Z,101224.57
2023-06-17T19:01:15.560Z,101226.30
2023-06-17T19:03:43.819Z,101226.76
2023-06-17T19:06:11.895Z,101230.55
2023-06-17T19:08:39.999Z,101230.98
2023-06-17T19:11:08.620Z,101228.59
2023-06-17T19:13:36.650Z,101233.34
2023-06-17T19:16:05.710Z,101234.25
2023-06-17T19:18:33.898Z,101233.13
2023-06-17T19:21:01.956Z,101232.77
2023-06-17T19:23:30.135Z,101233.34
2023-06-17T19:25:58.252Z,101235.00
2023-06-17T19:28:26.512Z,101233.82
2023-06-17T19:30:54.610Z,101235.55
2023-06-17T19:33:23.698Z,101239.41
2023-06-17T19:35:52.461Z,101237.39
2023-06-17T19:38:21.019Z,101235.39
2023-06-17T19:40:49.293Z,101238.76
2023-06-17T19:44:07.282Z,101245.10
2023-06-17T19:46:35.617Z,101252.30
2023-06-17T19:49:03.930Z,101257.85
2023-06-17T19:51:32.325Z,101251.67
2023-06-17T19:54:00.605Z,101255.56
2023-06-17T19:56:29.284Z,101252.69
2023-06-17T19:58:58.070Z,101257.79
2023-06-17T20:04:52.476Z,101268.74
2023-06-17T20:07:35.366Z,101265.05
2023-06-17T20:10:03.656Z,101270.54
2023-06-17T20:12:31.773Z,101265.18
2023-06-17T20:14:59.989Z,101267.77
2023-06-17T20:17:45.203Z,101274.46
2023-06-17T20:20:15.205Z,101275.70
2023-06-17T20:23:26.509Z,101279.08
2023-06-17T20:29:20.793Z,101292.48
2023-06-17T20:31:48.925Z,101288.36
2023-06-17T20:34:44.705Z,101293.79
2023-06-17T20:37:12.842Z,101283.85
2023-06-17T20:39:40.945Z,101281.79
2023-06-17T20:42:09.472Z,101285.52
2023-06-17T20:44:37.605Z,101282.25
2023-06-17T20:47:06.380Z,101276.00
2023-06-17T20:49:34.487Z,101281.79
2023-06-17T20:52:02.845Z,101276.79
2023-06-17T20:54:30.796Z,101268.91
2023-06-17T20:56:58.981Z,101272.66
2023-06-17T20:59:27.171Z,101282.25
2023-06-17T21:01:55.302Z,101274.34
2023-06-17T21:04:23.397Z,101282.64
2023-06-17T21:06:51.501Z,101281.00
2023-06-17T21:09:19.529Z,101278.55
2023-06-17T21:11:47.742Z,101286.86
2023-06-17T21:14:16.175Z,101291.80
2023-06-17T21:16:44.327Z,101288.91
2023-06-17T21:19:12.428Z,101295.98
2023-06-17T21:21:40.535Z,101290.59
2023-06-17T21:24:08.631Z,101290.98
2023-06-17T21:26:36.776Z,101294.70
2023-06-17T21:29:04.882Z,101296.37
2023-06-17T21:31:32.984Z,101300.49
2023-06-17T21:34:00.980Z,101302.16
2023-06-17T21:36:29.046Z,101307.13
2023-06-17T21:38:57.052Z,101320.83
2023-06-17T21:41:25.139Z,101317.07
2023-06-17T21:43:53.684Z,101315.79
2023-06-17T21:46:24.968Z,101316.61
2023-06-17T21:48:53.413Z,101317.00
2023-06-17T21:51:21.620Z,101317.82
2023-06-17T21:53:49.598Z,101317.36
2023-06-17T21:56:17.751Z,101313.14
2023-06-17T21:58:45.821Z,101313.96
2023-06-17T22:01:13.906Z,101311.05
2023-06-17T22:03:45.274Z,101317.59
2023-06-17T22:06:13.641Z,101316.31
2023-06-17T22:08:43.934Z,101319.59
2023-06-17T22:11:15.576Z,101313.77
2023-06-17T22:13:43.808Z,101315.34
2023-06-17T22:16:14.084Z,101308.70
2023-06-17T22:18:42.228Z,101312.00
2023-06-17T22:21:10.563Z,101313.21
2023-06-17T22:23:38.650Z,101309.05
2023-06-17T22:26:06.792Z,101304.02
2023-06-17T22:28:34.846Z,101308.99
2023-06-17T22:31:03.064Z,101315.17
2023-06-17T22:33:31.170Z,101310.63
2023-06-17T22:35:59.276Z,101307.29
2023-06-17T22:38:27.275Z,101308.53
2023-06-17T22:40:55.369Z,101308.08
2023-06-17T22:43:23.549Z,101310.53
2023-06-17T22:45:51.721Z,101303.89
2023-06-17T22:48:19.810Z,101310.53
2023-06-17T22:50:48.441Z,101309.29
2023-06-17T22:53:16.539Z,101308.86
2023-06-17T22:55:44.699Z,101318.80
2023-06-17T22:58:12.815Z,101317.91
2023-06-17T23:00:41.246Z,101318.70
2023-06-17T23:03:09.692Z,101324.45
2023-06-17T23:05:37.843Z,101312.00
2023-06-17T23:08:06.096Z,101316.12
2023-06-17T23:10:34.254Z,101313.63
2023-06-17T23:13:02.534Z,101310.73
2023-06-17T23:15:30.665Z,101307.39
2023-06-17T23:17:58.943Z,101307.78
2023-06-17T23:20:27.080Z,101311.90
2023-06-17T23:22:55.337Z,101314.38
2023-06-17T23:25:23.530Z,101326.32
2023-06-17T23:27:51.654Z,101317.63
2023-06-17T23:30:20.198Z,101320.89
2023-06-17T23:32:49.250Z,101317.98
2023-06-17T23:35:17.413Z,101314.71
2023-06-17T23:37:45.475Z,101321.29
2023-06-17T23:40:13.787Z,101315.04
2023-06-17T23:42:42.068Z,101313.80
2023-06-17T23:45:10.760Z,101325.80
2023-06-17T23:47:38.827Z,101312.49
2023-06-17T23:50:07.281Z,101310.40
2023-06-17T23:52:35.392Z,101314.06
2023-06-17T23:55:03.495Z,101310.34
2023-06-17T23:57:31.650Z,101307.78
2023-06-17T23:59:59.709Z,101308.60
